sensor_id;sensor_type;location;lat;lon;timestamp;temperature;humidity
15257;DHT22;7731;50.720;6.912;2023-07-20T00:00:26;18.00;99.90
15257;DHT22;7731;50.720;6.912;2023-07-20T00:03:10;17.90;99.90
15257;DHT22;7731;50.720;6.912;2023-07-20T00:05:46;17.70;99.90
15257;DHT22;7731;50.720;6.912;2023-07-20T00:08:20;17.60;99.90
15257;DHT22;7731;50.720;6.912;2023-07-20T00:10:50;17.50;99.90
15257;DHT22;7731;50.720;6.912;2023-07-20T00:13:21;17.50;99.90
15257;DHT22;7731;50.720;6.912;2023-07-20T00:15:51;17.40;99.90
15257;DHT22;7731;50.720;6.912;2023-07-20T00:18:21;17.30;99.90
15257;DHT22;7731;50.720;6.912;2023-07-20T00:21:03;17.30;99.90
15257;DHT22;7731;50.720;6.912;2023-07-20T00:23:38;17.30;99.90
15257;DHT22;7731;50.720;6.912;2023-07-20T00:26:08;17.30;99.90
15257;DHT22;7731;50.720;6.912;2023-07-20T00:28:41;17.30;99.90
15257;DHT22;7731;50.720;6.912;2023-07-20T00:31:11;17.20;99.90
15257;DHT22;7731;50.720;6.912;2023-07-20T00:33:42;17.10;99.90
15257;DHT22;7731;50.720;6.912;2023-07-20T00:36:17;17.10;99.90
15257;DHT22;7731;50.720;6.912;2023-07-20T00:38:48;17.10;99.90
15257;DHT22;7731;50.720;6.912;2023-07-20T00:41:18;17.10;99.90
15257;DHT22;7731;50.720;6.912;2023-07-20T00:43:48;17.10;99.90
15257;DHT22;7731;50.720;6.912;2023-07-20T00:46:20;17.10;99.90
15257;DHT22;7731;50.720;6.912;2023-07-20T00:48:53;17.00;99.90
15257;DHT22;7731;50.720;6.912;2023-07-20T00:51:26;17.00;99.90
15257;DHT22;7731;50.720;6.912;2023-07-20T00:53:57;17.00;99.90
15257;DHT22;7731;50.720;6.912;2023-07-20T00:56:28;17.00;99.90
15257;DHT22;7731;50.720;6.912;2023-07-20T00:58:58;17.00;99.90
15257;DHT22;7731;50.720;6.912;2023-07-20T01:01:29;17.10;99.90
15257;DHT22;7731;50.720;6.912;2023-07-20T01:04:08;17.00;99.90
15257;DHT22;7731;50.720;6.912;2023-07-20T01:07:06;17.00;99.90
15257;DHT22;7731;50.720;6.912;2023-07-20T01:09:51;17.00;99.90
15257;DHT22;7731;50.720;6.912;2023-07-20T01:12:38;16.90;99.90
15257;DHT22;7731;50.720;6.912;2023-07-20T01:15:11;16.90;99.90
15257;DHT22;7731;50.720;6.912;2023-07-20T01:17:44;16.90;99.90
15257;DHT22;7731;50.720;6.912;2023-07-20T01:20:16;16.90;99.90
15257;DHT22;7731;50.720;6.912;2023-07-20T01:23:07;16.90;99.90
15257;DHT22;7731;50.720;6.912;2023-07-20T01:26:34;16.90;99.90
15257;DHT22;7731;50.720;6.912;2023-07-20T01:29:28;16.80;99.90
15257;DHT22;7731;50.720;6.912;2023-07-20T01:32:11;16.90;99.90
15257;DHT22;7731;50.720;6.912;2023-07-20T01:34:47;16.90;99.90
15257;DHT22;7731;50.720;6.912;2023-07-20T01:37:21;16.90;99.90
15257;DHT22;7731;50.720;6.912;2023-07-20T01:39:57;16.80;99.90
15257;DHT22;7731;50.720;6.912;2023-07-20T01:42:28;16.80;99.90
15257;DHT22;7731;50.720;6.912;2023-07-20T01:44:59;16.80;99.90
15257;DHT22;7731;50.720;6.912;2023-07-20T01:47:32;16.80;99.90
15257;DHT22;7731;50.720;6.912;2023-07-20T01:50:02;16.80;99.90
15257;DHT22;7731;50.720;6.912;2023-07-20T01:52:36;16.80;99.90
15257;DHT22;7731;50.720;6.912;2023-07-20T01:55:09;16.80;99.90
15257;DHT22;7731;50.720;6.912;2023-07-20T01:57:39;16.80;99.90
15257;DHT22;7731;50.720;6.912;2023-07-20T02:00:10;16.80;99.90
15257;DHT22;7731;50.720;6.912;2023-07-20T02:02:47;16.80;99.90
15257;DHT22;7731;50.720;6.912;2023-07-20T02:05:18;16.70;99.90
15257;DHT22;7731;50.720;6.912;2023-07-20T02:07:48;16.70;99.90
15257;DHT22;7731;50.720;6.912;2023-07-20T02:10:24;16.70;99.90
15257;DHT22;7731;50.720;6.912;2023-07-20T02:12:54;16.60;99.90
15257;DHT22;7731;50.720;6.912;2023-07-20T02:15:25;16.60;99.90
15257;DHT22;7731;50.720;6.912;2023-07-20T02:17:58;16.60;99.90
15257;DHT22;7731;50.720;6.912;2023-07-20T02:20:34;16.60;99.90
15257;DHT22;7731;50.720;6.912;2023-07-20T02:23:04;16.50;99.90
15257;DHT22;7731;50.720;6.912;2023-07-20T02:25:34;16.50;99.90
15257;DHT22;7731;50.720;6.912;2023-07-20T02:28:07;16.50;99.90
15257;DHT22;7731;50.720;6.912;2023-07-20T02:30:38;16.50;99.90
15257;DHT22;7731;50.720;6.912;2023-07-20T02:33:16;16.40;99.90
15257;DHT22;7731;50.720;6.912;2023-07-20T02:35:47;16.40;99.90
15257;DHT22;7731;50.720;6.912;2023-07-20T02:38:17;16.40;99.90
15257;DHT22;7731;50.720;6.912;2023-07-20T02:40:47;16.30;99.90
15257;DHT22;7731;50.720;6.912;2023-07-20T02:43:18;16.30;99.90
15257;DHT22;7731;50.720;6.912;2023-07-20T02:45:53;16.20;99.90
15257;DHT22;7731;50.720;6.912;2023-07-20T02:48:28;16.10;99.90
15257;DHT22;7731;50.720;6.912;2023-07-20T02:50:58;16.00;99.90
15257;DHT22;7731;50.720;6.912;2023-07-20T02:53:28;16.00;99.90
15257;DHT22;7731;50.720;6.912;2023-07-20T02:55:58;15.90;99.90
15257;DHT22;7731;50.720;6.912;2023-07-20T02:58:41;16.00;99.90
15257;DHT22;7731;50.720;6.912;2023-07-20T03:01:13;16.00;99.90
15257;DHT22;7731;50.720;6.912;2023-07-20T03:03:46;15.90;99.90
15257;DHT22;7731;50.720;6.912;2023-07-20T03:06:30;15.90;99.90
15257;DHT22;7731;50.720;6.912;2023-07-20T03:09:03;15.90;99.90
15257;DHT22;7731;50.720;6.912;2023-07-20T03:11:39;15.70;99.90
15257;DHT22;7731;50.720;6.912;2023-07-20T03:14:10;15.70;99.90
15257;DHT22;7731;50.720;6.912;2023-07-20T03:16:40;15.60;99.90
15257;DHT22;7731;50.720;6.912;2023-07-20T03:19:13;15.60;99.90
15257;DHT22;7731;50.720;6.912;2023-07-20T03:21:43;15.60;99.90
15257;DHT22;7731;50.720;6.912;2023-07-20T03:24:13;15.50;99.90
15257;DHT22;7731;50.720;6.912;2023-07-20T03:26:44;15.40;99.90
15257;DHT22;7731;50.720;6.912;2023-07-20T03:29:14;15.40;99.90
15257;DHT22;7731;50.720;6.912;2023-07-20T03:31:45;15.40;99.90
15257;DHT22;7731;50.720;6.912;2023-07-20T03:34:18;15.40;99.90
15257;DHT22;7731;50.720;6.912;2023-07-20T03:36:48;15.50;99.90
15257;DHT22;7731;50.720;6.912;2023-07-20T03:39:19;15.50;99.90
15257;DHT22;7731;50.720;6.912;2023-07-20T03:41:49;15.50;99.90
15257;DHT22;7731;50.720;6.912;2023-07-20T03:44:28;15.40;99.90
15257;DHT22;7731;50.720;6.912;2023-07-20T03:46:59;15.40;99.90
15257;DHT22;7731;50.720;6.912;2023-07-20T03:49:33;15.30;99.90
15257;DHT22;7731;50.720;6.912;2023-07-20T03:52:04;15.30;99.90
15257;DHT22;7731;50.720;6.912;2023-07-20T03:54:35;15.30;99.90
15257;DHT22;7731;50.720;6.912;2023-07-20T03:57:05;15.30;99.90
15257;DHT22;7731;50.720;6.912;2023-07-20T03:59:37;15.40;99.90
15257;DHT22;7731;50.720;6.912;2023-07-20T04:02:09;15.40;99.90
15257;DHT22;7731;50.720;6.912;2023-07-20T04:04:44;15.40;99.90
15257;DHT22;7731;50.720;6.912;2023-07-20T04:07:15;15.50;99.90
15257;DHT22;7731;50.720;6.912;2023-07-20T04:09:45;15.60;99.90
15257;DHT22;7731;50.720;6.912;2023-07-20T04:12:15;15.70;99.90
15257;DHT22;7731;50.720;6.912;2023-07-20T04:14:48;15.80;99.90
15257;DHT22;7731;50.720;6.912;2023-07-20T04:17:18;15.90;99.90
15257;DHT22;7731;50.720;6.912;2023-07-20T04:19:54;16.00;99.90
15257;DHT22;7731;50.720;6.912;2023-07-20T04:22:24;16.00;99.90
15257;DHT22;7731;50.720;6.912;2023-07-20T04:24:55;16.10;99.90
15257;DHT22;7731;50.720;6.912;2023-07-20T04:27:25;16.10;99.90
15257;DHT22;7731;50.720;6.912;2023-07-20T04:29:58;16.20;99.90
15257;DHT22;7731;50.720;6.912;2023-07-20T04:32:29;16.40;99.90
15257;DHT22;7731;50.720;6.912;2023-07-20T04:35:09;16.50;99.90
15257;DHT22;7731;50.720;6.912;2023-07-20T04:37:39;16.60;99.90
15257;DHT22;7731;50.720;6.912;2023-07-20T04:40:15;16.70;99.90
15257;DHT22;7731;50.720;6.912;2023-07-20T04:42:46;16.70;99.90
15257;DHT22;7731;50.720;6.912;2023-07-20T04:45:16;16.90;99.90
15257;DHT22;7731;50.720;6.912;2023-07-20T04:47:46;17.10;99.90
15257;DHT22;7731;50.720;6.912;2023-07-20T04:50:20;17.10;99.90
15257;DHT22;7731;50.720;6.912;2023-07-20T04:52:54;17.10;99.90
15257;DHT22;7731;50.720;6.912;2023-07-20T04:55:24;17.30;99.90
15257;DHT22;7731;50.720;6.912;2023-07-20T04:58:04;17.30;99.90
15257;DHT22;7731;50.720;6.912;2023-07-20T05:00:38;17.50;99.90
15257;DHT22;7731;50.720;6.912;2023-07-20T05:03:11;17.70;99.90
15257;DHT22;7731;50.720;6.912;2023-07-20T05:05:44;17.80;99.90
15257;DHT22;7731;50.720;6.912;2023-07-20T05:08:16;17.80;99.90
15257;DHT22;7731;50.720;6.912;2023-07-20T05:10:52;17.80;99.90
15257;DHT22;7731;50.720;6.912;2023-07-20T05:13:22;17.80;99.90
15257;DHT22;7731;50.720;6.912;2023-07-20T05:15:53;17.90;99.90
15257;DHT22;7731;50.720;6.912;2023-07-20T05:18:23;17.70;99.90
15257;DHT22;7731;50.720;6.912;2023-07-20T05:20:56;17.80;99.90
15257;DHT22;7731;50.720;6.912;2023-07-20T05:23:26;17.90;99.90
15257;DHT22;7731;50.720;6.912;2023-07-20T05:25:57;18.00;99.90
15257;DHT22;7731;50.720;6.912;2023-07-20T05:28:31;18.10;99.90
15257;DHT22;7731;50.720;6.912;2023-07-20T05:31:07;18.10;99.90
15257;DHT22;7731;50.720;6.912;2023-07-20T05:33:37;18.30;99.90
15257;DHT22;7731;50.720;6.912;2023-07-20T05:36:10;18.80;99.90
15257;DHT22;7731;50.720;6.912;2023-07-20T05:38:40;19.40;99.90
15257;DHT22;7731;50.720;6.912;2023-07-20T05:41:11;19.60;99.90
15257;DHT22;7731;50.720;6.912;2023-07-20T05:43:41;19.70;99.90
15257;DHT22;7731;50.720;6.912;2023-07-20T05:46:14;19.70;99.90
15257;DHT22;7731;50.720;6.912;2023-07-20T05:48:50;19.40;99.90
15257;DHT22;7731;50.720;6.912;2023-07-20T05:51:23;19.70;99.90
15257;DHT22;7731;50.720;6.912;2023-07-20T05:53:53;21.00;99.90
15257;DHT22;7731;50.720;6.912;2023-07-20T05:56:23;21.30;99.90
15257;DHT22;7731;50.720;6.912;2023-07-20T05:58:54;20.80;99.90
15257;DHT22;7731;50.720;6.912;2023-07-20T06:01:24;20.20;99.90
15257;DHT22;7731;50.720;6.912;2023-07-20T06:03:58;19.80;99.90
15257;DHT22;7731;50.720;6.912;2023-07-20T06:06:31;19.40;99.90
15257;DHT22;7731;50.720;6.912;2023-07-20T06:09:02;19.10;99.90
15257;DHT22;7731;50.720;6.912;2023-07-20T06:11:36;19.00;99.90
15257;DHT22;7731;50.720;6.912;2023-07-20T06:14:07;18.80;99.90
15257;DHT22;7731;50.720;6.912;2023-07-20T06:16:40;18.60;99.90
15257;DHT22;7731;50.720;6.912;2023-07-20T06:19:11;18.60;99.90
15257;DHT22;7731;50.720;6.912;2023-07-20T06:21:46;18.50;99.90
15257;DHT22;7731;50.720;6.912;2023-07-20T06:24:16;18.40;99.90
15257;DHT22;7731;50.720;6.912;2023-07-20T06:26:50;18.40;99.90
15257;DHT22;7731;50.720;6.912;2023-07-20T06:29:30;18.40;99.90
15257;DHT22;7731;50.720;6.912;2023-07-20T06:32:00;18.60;99.90
15257;DHT22;7731;50.720;6.912;2023-07-20T06:34:33;18.60;99.90
15257;DHT22;7731;50.720;6.912;2023-07-20T06:37:07;18.70;99.90
15257;DHT22;7731;50.720;6.912;2023-07-20T06:39:38;19.00;99.90
15257;DHT22;7731;50.720;6.912;2023-07-20T06:42:14;19.20;99.90
15257;DHT22;7731;50.720;6.912;2023-07-20T06:44:44;19.50;99.90
15257;DHT22;7731;50.720;6.912;2023-07-20T06:47:15;19.70;99.90
15257;DHT22;7731;50.720;6.912;2023-07-20T06:49:45;20.10;99.90
15257;DHT22;7731;50.720;6.912;2023-07-20T06:52:18;20.20;99.90
15257;DHT22;7731;50.720;6.912;2023-07-20T06:54:48;20.30;99.90
15257;DHT22;7731;50.720;6.912;2023-07-20T06:57:18;20.60;99.90
15257;DHT22;7731;50.720;6.912;2023-07-20T07:00:10;20.60;99.90
15257;DHT22;7731;50.720;6.912;2023-07-20T07:02:44;20.40;99.90
15257;DHT22;7731;50.720;6.912;2023-07-20T07:05:17;20.00;99.90
15257;DHT22;7731;50.720;6.912;2023-07-20T07:07:51;20.20;99.90
15257;DHT22;7731;50.720;6.912;2023-07-20T07:10:21;20.70;99.90
15257;DHT22;7731;50.720;6.912;2023-07-20T07:12:51;20.30;99.90
15257;DHT22;7731;50.720;6.912;2023-07-20T07:15:21;20.20;99.90
15257;DHT22;7731;50.720;6.912;2023-07-20T07:17:52;20.30;99.90
15257;DHT22;7731;50.720;6.912;2023-07-20T07:20:22;20.30;99.90
15257;DHT22;7731;50.720;6.912;2023-07-20T07:22:58;20.20;99.90
15257;DHT22;7731;50.720;6.912;2023-07-20T07:25:30;20.30;99.90
15257;DHT22;7731;50.720;6.912;2023-07-20T07:28:01;20.40;99.90
15257;DHT22;7731;50.720;6.912;2023-07-20T07:30:42;20.60;99.90
15257;DHT22;7731;50.720;6.912;2023-07-20T07:33:13;20.80;99.90
15257;DHT22;7731;50.720;6.912;2023-07-20T07:35:43;21.00;99.90
15257;DHT22;7731;50.720;6.912;2023-07-20T07:38:16;21.40;99.90
15257;DHT22;7731;50.720;6.912;2023-07-20T07:40:50;21.00;99.90
15257;DHT22;7731;50.720;6.912;2023-07-20T07:43:20;21.30;99.90
15257;DHT22;7731;50.720;6.912;2023-07-20T07:45:54;21.80;99.90
15257;DHT22;7731;50.720;6.912;2023-07-20T07:48:28;22.70;51.40
15257;DHT22;7731;50.720;6.912;2023-07-20T07:50:58;23.20;21.60
15257;DHT22;7731;50.720;6.912;2023-07-20T07:53:31;22.70;24.30
15257;DHT22;7731;50.720;6.912;2023-07-20T07:56:03;22.00;1.00
15257;DHT22;7731;50.720;6.912;2023-07-20T07:58:36;21.80;1.00
15257;DHT22;7731;50.720;6.912;2023-07-20T08:01:07;22.00;1.00
15257;DHT22;7731;50.720;6.912;2023-07-20T08:03:37;22.40;1.00
15257;DHT22;7731;50.720;6.912;2023-07-20T08:06:08;23.30;1.00
15257;DHT22;7731;50.720;6.912;2023-07-20T08:08:45;24.80;1.00
15257;DHT22;7731;50.720;6.912;2023-07-20T08:11:15;25.80;1.00
15257;DHT22;7731;50.720;6.912;2023-07-20T08:13:45;26.40;99.90
15257;DHT22;7731;50.720;6.912;2023-07-20T08:16:16;27.60;99.90
15257;DHT22;7731;50.720;6.912;2023-07-20T08:18:46;28.30;1.00
15257;DHT22;7731;50.720;6.912;2023-07-20T08:21:18;29.10;86.70
15257;DHT22;7731;50.720;6.912;2023-07-20T08:23:53;30.30;1.00
15257;DHT22;7731;50.720;6.912;2023-07-20T08:26:23;29.90;99.90
15257;DHT22;7731;50.720;6.912;2023-07-20T08:28:54;29.00;99.90
15257;DHT22;7731;50.720;6.912;2023-07-20T08:31:24;28.50;99.90
15257;DHT22;7731;50.720;6.912;2023-07-20T08:33:58;28.10;1.00
15257;DHT22;7731;50.720;6.912;2023-07-20T08:36:46;26.80;1.00
15257;DHT22;7731;50.720;6.912;2023-07-20T08:39:21;26.00;1.00
15257;DHT22;7731;50.720;6.912;2023-07-20T08:41:52;25.70;99.90
15257;DHT22;7731;50.720;6.912;2023-07-20T08:44:24;27.80;1.00
15257;DHT22;7731;50.720;6.912;2023-07-20T08:46:55;29.00;1.00
15257;DHT22;7731;50.720;6.912;2023-07-20T08:49:30;28.80;99.90
15257;DHT22;7731;50.720;6.912;2023-07-20T08:52:02;28.80;99.90
15257;DHT22;7731;50.720;6.912;2023-07-20T08:54:36;30.10;99.90
15257;DHT22;7731;50.720;6.912;2023-07-20T08:57:13;30.40;99.90
15257;DHT22;7731;50.720;6.912;2023-07-20T08:59:44;29.40;99.90
15257;DHT22;7731;50.720;6.912;2023-07-20T09:02:16;28.20;99.90
15257;DHT22;7731;50.720;6.912;2023-07-20T09:04:48;28.10;99.90
15257;DHT22;7731;50.720;6.912;2023-07-20T09:07:19;29.00;99.90
15257;DHT22;7731;50.720;6.912;2023-07-20T09:09:57;28.10;99.90
15257;DHT22;7731;50.720;6.912;2023-07-20T09:12:35;27.10;99.90
15257;DHT22;7731;50.720;6.912;2023-07-20T09:15:13;27.00;99.90
15257;DHT22;7731;50.720;6.912;2023-07-20T09:17:46;26.50;99.90
15257;DHT22;7731;50.720;6.912;2023-07-20T09:20:23;27.20;99.90
15257;DHT22;7731;50.720;6.912;2023-07-20T09:22:53;28.50;99.90
15257;DHT22;7731;50.720;6.912;2023-07-20T09:25:27;28.90;99.90
15257;DHT22;7731;50.720;6.912;2023-07-20T09:28:02;30.60;99.90
15257;DHT22;7731;50.720;6.912;2023-07-20T09:30:33;30.20;29.40
15257;DHT22;7731;50.720;6.912;2023-07-20T09:33:05;31.60;1.00
15257;DHT22;7731;50.720;6.912;2023-07-20T09:35:52;31.70;1.00
15257;DHT22;7731;50.720;6.912;2023-07-20T09:38:30;29.90;1.00
15257;DHT22;7731;50.720;6.912;2023-07-20T09:41:28;28.50;1.00
15257;DHT22;7731;50.720;6.912;2023-07-20T09:44:04;27.50;8.10
15257;DHT22;7731;50.720;6.912;2023-07-20T09:46:45;27.20;99.90
15257;DHT22;7731;50.720;6.912;2023-07-20T09:49:21;26.70;99.90
15257;DHT22;7731;50.720;6.912;2023-07-20T09:51:57;27.00;99.90
15257;DHT22;7731;50.720;6.912;2023-07-20T09:54:30;27.20;99.90
15257;DHT22;7731;50.720;6.912;2023-07-20T09:57:04;28.00;99.90
15257;DHT22;7731;50.720;6.912;2023-07-20T09:59:37;28.20;99.90
15257;DHT22;7731;50.720;6.912;2023-07-20T10:02:20;28.00;99.90
15257;DHT22;7731;50.720;6.912;2023-07-20T10:04:55;27.10;99.90
15257;DHT22;7731;50.720;6.912;2023-07-20T10:07:31;26.70;99.90
15257;DHT22;7731;50.720;6.912;2023-07-20T10:10:07;26.40;99.90
15257;DHT22;7731;50.720;6.912;2023-07-20T10:12:47;26.90;99.90
15257;DHT22;7731;50.720;6.912;2023-07-20T10:15:29;27.40;99.90
15257;DHT22;7731;50.720;6.912;2023-07-20T10:18:09;28.30;99.90
15257;DHT22;7731;50.720;6.912;2023-07-20T10:20:44;29.30;99.90
15257;DHT22;7731;50.720;6.912;2023-07-20T10:23:19;29.00;32.00
15257;DHT22;7731;50.720;6.912;2023-07-20T10:25:51;28.60;27.50
15257;DHT22;7731;50.720;6.912;2023-07-20T10:28:27;27.60;41.50
15257;DHT22;7731;50.720;6.912;2023-07-20T10:30:58;27.10;91.10
15257;DHT22;7731;50.720;6.912;2023-07-20T10:33:28;26.80;99.90
15257;DHT22;7731;50.720;6.912;2023-07-20T10:36:02;26.70;99.90
15257;DHT22;7731;50.720;6.912;2023-07-20T10:38:41;26.80;99.90
15257;DHT22;7731;50.720;6.912;2023-07-20T10:41:19;27.10;99.90
15257;DHT22;7731;50.720;6.912;2023-07-20T10:44:02;27.70;99.90
15257;DHT22;7731;50.720;6.912;2023-07-20T10:46:42;29.40;99.90
15257;DHT22;7731;50.720;6.912;2023-07-20T10:49:14;30.50;29.10
15257;DHT22;7731;50.720;6.912;2023-07-20T10:51:49;30.70;1.00
15257;DHT22;7731;50.720;6.912;2023-07-20T10:54:47;30.30;1.00
15257;DHT22;7731;50.720;6.912;2023-07-20T10:57:38;30.30;1.00
15257;DHT22;7731;50.720;6.912;2023-07-20T11:00:13;29.70;1.00
15257;DHT22;7731;50.720;6.912;2023-07-20T11:02:49;28.80;1.00
15257;DHT22;7731;50.720;6.912;2023-07-20T11:05:35;28.20;1.00
15257;DHT22;7731;50.720;6.912;2023-07-20T11:08:10;28.10;1.00
15257;DHT22;7731;50.720;6.912;2023-07-20T11:10:41;27.80;6.10
15257;DHT22;7731;50.720;6.912;2023-07-20T11:13:24;27.40;26.10
15257;DHT22;7731;50.720;6.912;2023-07-20T11:16:06;27.10;91.30
15257;DHT22;7731;50.720;6.912;2023-07-20T11:18:40;26.70;99.90
15257;DHT22;7731;50.720;6.912;2023-07-20T11:21:11;26.50;99.90
15257;DHT22;7731;50.720;6.912;2023-07-20T11:23:43;26.50;99.90
15257;DHT22;7731;50.720;6.912;2023-07-20T11:26:27;27.20;99.90
15257;DHT22;7731;50.720;6.912;2023-07-20T11:29:00;27.60;99.90
15257;DHT22;7731;50.720;6.912;2023-07-20T11:31:46;27.40;90.90
15257;DHT22;7731;50.720;6.912;2023-07-20T11:34:20;27.50;78.40
15257;DHT22;7731;50.720;6.912;2023-07-20T11:37:06;27.80;56.20
15257;DHT22;7731;50.720;6.912;2023-07-20T11:39:55;27.70;40.60
15257;DHT22;7731;50.720;6.912;2023-07-20T11:42:32;27.60;46.30
15257;DHT22;7731;50.720;6.912;2023-07-20T11:45:07;27.40;62.40
15257;DHT22;7731;50.720;6.912;2023-07-20T11:47:50;28.00;80.20
15257;DHT22;7731;50.720;6.912;2023-07-20T11:50:26;28.00;57.80
15257;DHT22;7731;50.720;6.912;2023-07-20T11:52:57;27.90;45.90
15257;DHT22;7731;50.720;6.912;2023-07-20T11:55:34;28.00;42.30
15257;DHT22;7731;50.720;6.912;2023-07-20T11:58:09;27.80;30.80
15257;DHT22;7731;50.720;6.912;2023-07-20T12:00:40;27.50;24.60
15257;DHT22;7731;50.720;6.912;2023-07-20T12:03:19;26.80;57.30
15257;DHT22;7731;50.720;6.912;2023-07-20T12:05:50;26.50;99.90
15257;DHT22;7731;50.720;6.912;2023-07-20T12:08:27;26.50;99.90
15257;DHT22;7731;50.720;6.912;2023-07-20T12:10:58;26.00;99.90
15257;DHT22;7731;50.720;6.912;2023-07-20T12:13:39;26.50;99.90
15257;DHT22;7731;50.720;6.912;2023-07-20T12:16:21;26.70;99.90
15257;DHT22;7731;50.720;6.912;2023-07-20T12:18:59;26.80;99.90
15257;DHT22;7731;50.720;6.912;2023-07-20T12:21:31;26.90;99.90
15257;DHT22;7731;50.720;6.912;2023-07-20T12:24:11;26.90;99.90
15257;DHT22;7731;50.720;6.912;2023-07-20T12:26:41;27.30;99.90
15257;DHT22;7731;50.720;6.912;2023-07-20T12:29:17;27.10;99.90
15257;DHT22;7731;50.720;6.912;2023-07-20T12:31:48;26.90;99.90
15257;DHT22;7731;50.720;6.912;2023-07-20T12:34:22;27.10;99.90
15257;DHT22;7731;50.720;6.912;2023-07-20T12:36:52;27.60;99.90
15257;DHT22;7731;50.720;6.912;2023-07-20T12:39:22;27.80;99.90
15257;DHT22;7731;50.720;6.912;2023-07-20T12:41:55;27.90;90.30
15257;DHT22;7731;50.720;6.912;2023-07-20T12:44:26;27.60;76.40
15257;DHT22;7731;50.720;6.912;2023-07-20T12:46:56;27.60;60.10
15257;DHT22;7731;50.720;6.912;2023-07-20T12:49:29;27.00;88.40
15257;DHT22;7731;50.720;6.912;2023-07-20T12:51:59;27.40;85.20
15257;DHT22;7731;50.720;6.912;2023-07-20T12:54:30;27.70;91.00
15257;DHT22;7731;50.720;6.912;2023-07-20T12:57:03;27.60;69.10
15257;DHT22;7731;50.720;6.912;2023-07-20T12:59:37;27.60;48.90
15257;DHT22;7731;50.720;6.912;2023-07-20T13:02:09;28.10;21.20
15257;DHT22;7731;50.720;6.912;2023-07-20T13:04:49;28.00;5.00
15257;DHT22;7731;50.720;6.912;2023-07-20T13:07:32;27.70;1.00
15257;DHT22;7731;50.720;6.912;2023-07-20T13:10:08;27.40;1.00
15257;DHT22;7731;50.720;6.912;2023-07-20T13:12:40;27.30;1.00
15257;DHT22;7731;50.720;6.912;2023-07-20T13:15:11;27.10;1.00
15257;DHT22;7731;50.720;6.912;2023-07-20T13:17:41;27.10;1.00
15257;DHT22;7731;50.720;6.912;2023-07-20T13:20:14;27.40;1.00
15257;DHT22;7731;50.720;6.912;2023-07-20T13:22:47;27.40;1.00
15257;DHT22;7731;50.720;6.912;2023-07-20T13:25:18;27.30;1.00
15257;DHT22;7731;50.720;6.912;2023-07-20T13:27:51;27.60;1.00
15257;DHT22;7731;50.720;6.912;2023-07-20T13:30:24;27.60;1.00
15257;DHT22;7731;50.720;6.912;2023-07-20T13:32:54;27.60;1.00
15257;DHT22;7731;50.720;6.912;2023-07-20T13:35:38;27.60;1.00
15257;DHT22;7731;50.720;6.912;2023-07-20T13:38:16;27.30;1.00
15257;DHT22;7731;50.720;6.912;2023-07-20T13:40:53;27.00;1.00
15257;DHT22;7731;50.720;6.912;2023-07-20T13:43:26;26.80;1.10
15257;DHT22;7731;50.720;6.912;2023-07-20T13:46:01;26.50;1.00
15257;DHT22;7731;50.720;6.912;2023-07-20T13:48:31;26.30;10.40
15257;DHT22;7731;50.720;6.912;2023-07-20T13:51:06;26.10;27.50
15257;DHT22;7731;50.720;6.912;2023-07-20T13:53:36;26.10;42.50
15257;DHT22;7731;50.720;6.912;2023-07-20T13:56:15;26.10;52.00
15257;DHT22;7731;50.720;6.912;2023-07-20T13:58:47;26.30;61.40
15257;DHT22;7731;50.720;6.912;2023-07-20T14:01:20;26.30;67.00
15257;DHT22;7731;50.720;6.912;2023-07-20T14:03:56;26.10;81.80
15257;DHT22;7731;50.720;6.912;2023-07-20T14:06:33;26.50;96.10
15257;DHT22;7731;50.720;6.912;2023-07-20T14:09:04;26.70;97.70
15257;DHT22;7731;50.720;6.912;2023-07-20T14:11:34;26.60;95.50
15257;DHT22;7731;50.720;6.912;2023-07-20T14:14:08;26.50;92.30
15257;DHT22;7731;50.720;6.912;2023-07-20T14:16:38;26.30;94.20
15257;DHT22;7731;50.720;6.912;2023-07-20T14:19:09;26.10;99.90
15257;DHT22;7731;50.720;6.912;2023-07-20T14:21:42;25.80;99.90
15257;DHT22;7731;50.720;6.912;2023-07-20T14:24:12;25.60;99.90
15257;DHT22;7731;50.720;6.912;2023-07-20T14:26:48;25.50;99.90
15257;DHT22;7731;50.720;6.912;2023-07-20T14:29:18;25.50;99.90
15257;DHT22;7731;50.720;6.912;2023-07-20T14:31:53;25.50;99.90
15257;DHT22;7731;50.720;6.912;2023-07-20T14:34:26;25.80;99.90
15257;DHT22;7731;50.720;6.912;2023-07-20T14:37:02;26.00;99.90
15257;DHT22;7731;50.720;6.912;2023-07-20T14:39:32;26.20;99.90
15257;DHT22;7731;50.720;6.912;2023-07-20T14:42:03;26.10;99.90
15257;DHT22;7731;50.720;6.912;2023-07-20T14:44:34;26.10;99.90
15257;DHT22;7731;50.720;6.912;2023-07-20T14:47:05;26.20;99.90
15257;DHT22;7731;50.720;6.912;2023-07-20T14:49:41;26.00;94.40
15257;DHT22;7731;50.720;6.912;2023-07-20T14:52:17;26.10;92.00
15257;DHT22;7731;50.720;6.912;2023-07-20T14:54:54;26.60;71.30
15257;DHT22;7731;50.720;6.912;2023-07-20T14:57:28;26.80;49.50
15257;DHT22;7731;50.720;6.912;2023-07-20T14:59:58;26.50;41.70
15257;DHT22;7731;50.720;6.912;2023-07-20T15:02:29;26.20;49.60
15257;DHT22;7731;50.720;6.912;2023-07-20T15:05:03;26.20;50.00
15257;DHT22;7731;50.720;6.912;2023-07-20T15:07:39;26.00;49.30
15257;DHT22;7731;50.720;6.912;2023-07-20T15:10:10;26.00;44.90
15257;DHT22;7731;50.720;6.912;2023-07-20T15:12:40;26.20;45.40
15257;DHT22;7731;50.720;6.912;2023-07-20T15:15:13;26.30;42.50
15257;DHT22;7731;50.720;6.912;2023-07-20T15:17:44;26.70;30.00
15257;DHT22;7731;50.720;6.912;2023-07-20T15:20:16;26.90;27.10
15257;DHT22;7731;50.720;6.912;2023-07-20T15:22:50;26.70;6.90
15257;DHT22;7731;50.720;6.912;2023-07-20T15:25:23;26.60;2.70
15257;DHT22;7731;50.720;6.912;2023-07-20T15:27:53;26.70;1.00
15257;DHT22;7731;50.720;6.912;2023-07-20T15:30:23;26.90;1.00
15257;DHT22;7731;50.720;6.912;2023-07-20T15:32:57;26.80;1.00
15257;DHT22;7731;50.720;6.912;2023-07-20T15:35:33;26.80;1.00
15257;DHT22;7731;50.720;6.912;2023-07-20T15:38:08;26.80;1.00
15257;DHT22;7731;50.720;6.912;2023-07-20T15:40:43;26.40;1.00
15257;DHT22;7731;50.720;6.912;2023-07-20T15:43:13;26.20;1.00
15257;DHT22;7731;50.720;6.912;2023-07-20T15:45:47;26.50;1.00
15257;DHT22;7731;50.720;6.912;2023-07-20T15:48:20;26.50;1.00
15257;DHT22;7731;50.720;6.912;2023-07-20T15:50:53;26.60;1.00
15257;DHT22;7731;50.720;6.912;2023-07-20T15:53:41;26.50;1.00
15257;DHT22;7731;50.720;6.912;2023-07-20T15:56:14;26.50;1.00
15257;DHT22;7731;50.720;6.912;2023-07-20T15:58:44;26.50;1.00
15257;DHT22;7731;50.720;6.912;2023-07-20T16:01:22;26.50;1.00
15257;DHT22;7731;50.720;6.912;2023-07-20T16:03:56;26.20;1.00
15257;DHT22;7731;50.720;6.912;2023-07-20T16:06:30;25.90;1.00
15257;DHT22;7731;50.720;6.912;2023-07-20T16:09:05;25.60;1.00
15257;DHT22;7731;50.720;6.912;2023-07-20T16:11:36;25.40;5.90
15257;DHT22;7731;50.720;6.912;2023-07-20T16:14:15;25.50;13.80
15257;DHT22;7731;50.720;6.912;2023-07-20T16:16:45;25.50;15.20
15257;DHT22;7731;50.720;6.912;2023-07-20T16:19:16;25.40;20.10
15257;DHT22;7731;50.720;6.912;2023-07-20T16:21:49;25.20;21.90
15257;DHT22;7731;50.720;6.912;2023-07-20T16:24:22;25.20;31.80
15257;DHT22;7731;50.720;6.912;2023-07-20T16:26:52;25.30;38.10
15257;DHT22;7731;50.720;6.912;2023-07-20T16:29:23;25.20;35.80
15257;DHT22;7731;50.720;6.912;2023-07-20T16:31:53;25.20;37.30